AUA62J LOWW-LDDU
Flight info
| Callsign | AUA62J |
|---|---|
| Flight time | 0h 55m |
| Altitude | 37000 |
| Route | STEIN DCT NOHAT DCT KOPRY DCT NETKO |
| Aircraft | A321/M-SDE3FGHIRWY/LB1 |
Departure
| Time | 2026-04-26 14:16 |
|---|---|
| Airport | Vienna International Airport (LOWW) |
Arrival
| Time | 2026-04-26 15:12 |
|---|---|
| Airport | Dubrovnik Ruđer Bošković Airport (LDDU) |
| Time | Latitude | Longitude | Altitude | Speed | Heading |
|---|---|---|---|---|---|
| 2026-04-26 13:41 | 48.11601 | 16.57155 | 613 ft | 0 kts | 26° |
| 2026-04-26 14:09 | 48.11595 | 16.57150 | 609 ft | 3 kts | 26° |
| 2026-04-26 14:09 | 48.11578 | 16.57138 | 620 ft | 3 kts | 26° |
| 2026-04-26 14:09 | 48.11561 | 16.57126 | 616 ft | 3 kts | 26° |
| 2026-04-26 14:10 | 48.11544 | 16.57114 | 624 ft | 3 kts | 35° |
| 2026-04-26 14:10 | 48.11533 | 16.57092 | 624 ft | 3 kts | 71° |
| 2026-04-26 14:10 | 48.11528 | 16.57066 | 624 ft | 3 kts | 102° |
| 2026-04-26 14:10 | 48.11529 | 16.57057 | 624 ft | 0 kts | 112° |
| 2026-04-26 14:12 | 48.11525 | 16.57073 | 624 ft | 6 kts | 112° |
| 2026-04-26 14:12 | 48.11495 | 16.57178 | 613 ft | 13 kts | 114° |
| 2026-04-26 14:12 | 48.11454 | 16.57309 | 621 ft | 13 kts | 115° |
| 2026-04-26 14:13 | 48.11335 | 16.57346 | 624 ft | 16 kts | 206° |
| 2026-04-26 14:13 | 48.11243 | 16.57283 | 616 ft | 12 kts | 191° |
| 2026-04-26 14:13 | 48.11187 | 16.57358 | 611 ft | 12 kts | 118° |
| 2026-04-26 14:14 | 48.11147 | 16.57467 | 624 ft | 13 kts | 118° |
| 2026-04-26 14:14 | 48.11108 | 16.57583 | 619 ft | 10 kts | 117° |
| 2026-04-26 14:14 | 48.11072 | 16.57650 | 612 ft | 7 kts | 158° |
| 2026-04-26 14:14 | 48.11027 | 16.57631 | 609 ft | 7 kts | 208° |
| 2026-04-26 14:15 | 48.10986 | 16.57599 | 614 ft | 8 kts | 207° |
| 2026-04-26 14:15 | 48.10932 | 16.57538 | 621 ft | 9 kts | 243° |
| 2026-04-26 14:15 | 48.10944 | 16.57448 | 613 ft | 11 kts | 294° |
| 2026-04-26 14:15 | 48.11039 | 16.57158 | 617 ft | 63 kts | 296° |
| 2026-04-26 14:16 | 48.11328 | 16.56274 | 610 ft | 123 kts | 297° |
| 2026-04-26 14:16 | 48.11773 | 16.54893 | 619 ft | 169 kts | 296° |
| 2026-04-26 14:16 | 48.12294 | 16.53263 | 1096 ft | 173 kts | 294° |
| 2026-04-26 14:16 | 48.12243 | 16.51461 | 1818 ft | 183 kts | 250° |
| 2026-04-26 14:17 | 48.11288 | 16.50037 | 2167 ft | 209 kts | 213° |
| 2026-04-26 14:17 | 48.09956 | 16.48982 | 2534 ft | 225 kts | 210° |
| 2026-04-26 14:17 | 48.08512 | 16.47875 | 2834 ft | 243 kts | 210° |
| 2026-04-26 14:17 | 48.06784 | 16.47249 | 3026 ft | 275 kts | 176° |
| 2026-04-26 14:18 | 48.04875 | 16.47661 | 3749 ft | 283 kts | 170° |
| 2026-04-26 14:18 | 48.02907 | 16.48156 | 4520 ft | 288 kts | 172° |
| 2026-04-26 14:18 | 48.00921 | 16.48595 | 5417 ft | 288 kts | 175° |
| 2026-04-26 14:18 | 47.98916 | 16.48997 | 6218 ft | 292 kts | 177° |
| 2026-04-26 14:19 | 47.96886 | 16.49396 | 6981 ft | 296 kts | 178° |
| 2026-04-26 14:19 | 47.94834 | 16.49795 | 7708 ft | 299 kts | 177° |
| 2026-04-26 14:19 | 47.92751 | 16.50202 | 8426 ft | 304 kts | 177° |
| 2026-04-26 14:19 | 47.90643 | 16.50615 | 9143 ft | 308 kts | 176° |
| 2026-04-26 14:20 | 47.88536 | 16.51028 | 9856 ft | 312 kts | 176° |
| 2026-04-26 14:20 | 47.86352 | 16.51457 | 10264 ft | 326 kts | 175° |
| 2026-04-26 14:20 | 47.84021 | 16.51908 | 10390 ft | 348 kts | 176° |
| 2026-04-26 14:20 | 47.81550 | 16.52384 | 10515 ft | 368 kts | 175° |
| 2026-04-26 14:21 | 47.78960 | 16.52888 | 10850 ft | 380 kts | 175° |
| 2026-04-26 14:21 | 47.76313 | 16.53415 | 11394 ft | 385 kts | 175° |
| 2026-04-26 14:21 | 47.73644 | 16.53950 | 11989 ft | 389 kts | 175° |
| 2026-04-26 14:21 | 47.70951 | 16.54486 | 12583 ft | 392 kts | 175° |
| 2026-04-26 14:22 | 47.68227 | 16.55021 | 13161 ft | 396 kts | 175° |
| 2026-04-26 14:22 | 47.65483 | 16.55556 | 13761 ft | 400 kts | 175° |
| 2026-04-26 14:22 | 47.62708 | 16.56095 | 14277 ft | 403 kts | 175° |
| 2026-04-26 14:22 | 47.59915 | 16.56633 | 14776 ft | 406 kts | 175° |
| 2026-04-26 14:23 | 47.57097 | 16.57177 | 15259 ft | 409 kts | 175° |
| 2026-04-26 14:23 | 47.54264 | 16.57728 | 15761 ft | 412 kts | 175° |
| 2026-04-26 14:23 | 47.51405 | 16.58285 | 16244 ft | 415 kts | 174° |
| 2026-04-26 14:23 | 47.48531 | 16.58846 | 16723 ft | 418 kts | 174° |
| 2026-04-26 14:24 | 47.45633 | 16.59414 | 17193 ft | 421 kts | 174° |
| 2026-04-26 14:24 | 47.42715 | 16.59952 | 17619 ft | 423 kts | 177° |
| 2026-04-26 14:24 | 47.39774 | 16.60119 | 18057 ft | 424 kts | 180° |
| 2026-04-26 14:24 | 47.36816 | 16.60240 | 18481 ft | 427 kts | 180° |
| 2026-04-26 14:25 | 47.33837 | 16.60360 | 18844 ft | 429 kts | 180° |
| 2026-04-26 14:25 | 47.30849 | 16.60483 | 19219 ft | 431 kts | 180° |
| 2026-04-26 14:25 | 47.27849 | 16.60610 | 19589 ft | 432 kts | 180° |
| 2026-04-26 14:25 | 47.24836 | 16.60742 | 19957 ft | 434 kts | 180° |
| 2026-04-26 14:26 | 47.21847 | 16.60877 | 20314 ft | 436 kts | 180° |
| 2026-04-26 14:26 | 47.18781 | 16.61020 | 20796 ft | 435 kts | 180° |
| 2026-04-26 14:26 | 47.15793 | 16.61157 | 21234 ft | 436 kts | 180° |
| 2026-04-26 14:26 | 47.12759 | 16.61290 | 21650 ft | 437 kts | 180° |
| 2026-04-26 14:27 | 47.09714 | 16.61417 | 22062 ft | 439 kts | 180° |
| 2026-04-26 14:27 | 47.06651 | 16.61540 | 22463 ft | 441 kts | 180° |
| 2026-04-26 14:27 | 47.03576 | 16.61666 | 22862 ft | 443 kts | 180° |
| 2026-04-26 14:27 | 47.00490 | 16.61796 | 23262 ft | 445 kts | 180° |
| 2026-04-26 14:28 | 46.97385 | 16.61929 | 23625 ft | 448 kts | 180° |
| 2026-04-26 14:28 | 46.94257 | 16.62063 | 23961 ft | 450 kts | 180° |
| 2026-04-26 14:28 | 46.91120 | 16.62198 | 24274 ft | 452 kts | 180° |
| 2026-04-26 14:28 | 46.87970 | 16.62339 | 24594 ft | 454 kts | 180° |
| 2026-04-26 14:29 | 46.84805 | 16.62481 | 24914 ft | 455 kts | 180° |
| 2026-04-26 14:29 | 46.81645 | 16.62974 | 25232 ft | 459 kts | 171° |
| 2026-04-26 14:29 | 46.78548 | 16.64179 | 25533 ft | 463 kts | 161° |
| 2026-04-26 14:29 | 46.75549 | 16.65940 | 25856 ft | 465 kts | 159° |
| 2026-04-26 14:30 | 46.72555 | 16.67737 | 26175 ft | 466 kts | 159° |
| 2026-04-26 14:30 | 46.69543 | 16.69532 | 26480 ft | 468 kts | 159° |
| 2026-04-26 14:30 | 46.66524 | 16.71322 | 26796 ft | 469 kts | 159° |
| 2026-04-26 14:30 | 46.63489 | 16.73117 | 27098 ft | 471 kts | 159° |
| 2026-04-26 14:31 | 46.60448 | 16.74907 | 27394 ft | 472 kts | 159° |
| 2026-04-26 14:31 | 46.57392 | 16.76704 | 27674 ft | 474 kts | 160° |
| 2026-04-26 14:31 | 46.54332 | 16.78503 | 27933 ft | 475 kts | 159° |
| 2026-04-26 14:31 | 46.51260 | 16.80311 | 28198 ft | 476 kts | 159° |
| 2026-04-26 14:32 | 46.48186 | 16.82120 | 28447 ft | 478 kts | 159° |
| 2026-04-26 14:32 | 46.45099 | 16.83937 | 28668 ft | 479 kts | 159° |
| 2026-04-26 14:32 | 46.42010 | 16.85755 | 28889 ft | 480 kts | 159° |
| 2026-04-26 14:32 | 46.38910 | 16.87575 | 29136 ft | 480 kts | 159° |
| 2026-04-26 14:33 | 46.35819 | 16.89388 | 29435 ft | 479 kts | 159° |
| 2026-04-26 14:33 | 46.32731 | 16.91195 | 29729 ft | 478 kts | 159° |
| 2026-04-26 14:33 | 46.29651 | 16.92995 | 30050 ft | 476 kts | 159° |
| 2026-04-26 14:33 | 46.26587 | 16.94783 | 30345 ft | 474 kts | 160° |
| 2026-04-26 14:34 | 46.23506 | 16.96271 | 30584 ft | 471 kts | 168° |
| 2026-04-26 14:34 | 46.20290 | 16.97151 | 30828 ft | 469 kts | 173° |
| 2026-04-26 14:34 | 46.17063 | 16.97879 | 31060 ft | 469 kts | 173° |
| 2026-04-26 14:34 | 46.13840 | 16.98616 | 31281 ft | 469 kts | 173° |
| 2026-04-26 14:35 | 46.10621 | 16.99361 | 31519 ft | 468 kts | 173° |
| 2026-04-26 14:35 | 46.07403 | 17.00106 | 31794 ft | 467 kts | 173° |
| 2026-04-26 14:35 | 46.04199 | 17.00846 | 32064 ft | 466 kts | 173° |
| 2026-04-26 14:35 | 46.01001 | 17.01583 | 32315 ft | 465 kts | 173° |
| 2026-04-26 14:36 | 45.97802 | 17.02321 | 32571 ft | 465 kts | 173° |
| 2026-04-26 14:36 | 45.94612 | 17.03054 | 32827 ft | 464 kts | 173° |
| 2026-04-26 14:36 | 45.91420 | 17.03783 | 33076 ft | 464 kts | 173° |
| 2026-04-26 14:36 | 45.88236 | 17.04507 | 33329 ft | 463 kts | 173° |
| 2026-04-26 14:37 | 45.85048 | 17.05232 | 33571 ft | 463 kts | 173° |
| 2026-04-26 14:37 | 45.81868 | 17.05954 | 33814 ft | 462 kts | 173° |
| 2026-04-26 14:37 | 45.78691 | 17.06676 | 34053 ft | 462 kts | 173° |
| 2026-04-26 14:37 | 45.75518 | 17.07397 | 34276 ft | 462 kts | 173° |
| 2026-04-26 14:38 | 45.72342 | 17.08119 | 34468 ft | 461 kts | 173° |
| 2026-04-26 14:38 | 45.69178 | 17.08836 | 34674 ft | 461 kts | 173° |
| 2026-04-26 14:38 | 45.66007 | 17.09553 | 34859 ft | 461 kts | 173° |
| 2026-04-26 14:38 | 45.63910 | 17.10028 | 34972 ft | 461 kts | 173° |
| 2026-04-26 14:39 | 45.60741 | 17.10742 | 35144 ft | 461 kts | 173° |
| 2026-04-26 14:39 | 45.57566 | 17.11452 | 35352 ft | 461 kts | 173° |
| 2026-04-26 14:39 | 45.53367 | 17.12389 | 35599 ft | 461 kts | 173° |
| 2026-04-26 14:39 | 45.50203 | 17.13098 | 35775 ft | 460 kts | 173° |
| 2026-04-26 14:40 | 45.48061 | 17.13581 | 35899 ft | 460 kts | 173° |
| 2026-04-26 14:40 | 45.44900 | 17.14295 | 36083 ft | 460 kts | 173° |
| 2026-04-26 14:40 | 45.41740 | 17.15008 | 36258 ft | 460 kts | 173° |
| 2026-04-26 14:40 | 45.38618 | 17.15713 | 36433 ft | 460 kts | 173° |
| 2026-04-26 14:41 | 45.35456 | 17.16425 | 36609 ft | 459 kts | 173° |
| 2026-04-26 14:41 | 45.32302 | 17.17132 | 36778 ft | 459 kts | 173° |
| 2026-04-26 14:41 | 45.29148 | 17.17835 | 36936 ft | 459 kts | 173° |
| 2026-04-26 14:41 | 45.25996 | 17.18534 | 37077 ft | 459 kts | 173° |
| 2026-04-26 14:42 | 45.22840 | 17.19236 | 37128 ft | 458 kts | 173° |
| 2026-04-26 14:42 | 45.16541 | 17.20643 | 37122 ft | 458 kts | 173° |
| 2026-04-26 14:43 | 45.10244 | 17.22046 | 37122 ft | 458 kts | 173° |
| 2026-04-26 14:43 | 45.03953 | 17.23429 | 37107 ft | 458 kts | 173° |
| 2026-04-26 14:44 | 44.97660 | 17.24818 | 37113 ft | 457 kts | 173° |
| 2026-04-26 14:44 | 44.91369 | 17.26211 | 37116 ft | 457 kts | 173° |
| 2026-04-26 14:45 | 44.85078 | 17.27602 | 37109 ft | 457 kts | 173° |
| 2026-04-26 14:45 | 44.78823 | 17.28986 | 37108 ft | 457 kts | 173° |
| 2026-04-26 14:46 | 44.72537 | 17.30359 | 37114 ft | 457 kts | 173° |
| 2026-04-26 14:46 | 44.66243 | 17.31731 | 37114 ft | 457 kts | 173° |
| 2026-04-26 14:47 | 44.59946 | 17.33113 | 37113 ft | 457 kts | 173° |
| 2026-04-26 14:47 | 44.53657 | 17.34492 | 37120 ft | 457 kts | 173° |
| 2026-04-26 14:48 | 44.47366 | 17.35851 | 37119 ft | 457 kts | 173° |
| 2026-04-26 14:48 | 44.41079 | 17.37206 | 37108 ft | 457 kts | 173° |
| 2026-04-26 14:49 | 44.34795 | 17.38559 | 37112 ft | 457 kts | 173° |
| 2026-04-26 14:49 | 44.28516 | 17.39912 | 37113 ft | 457 kts | 173° |
| 2026-04-26 14:50 | 44.22233 | 17.41262 | 37108 ft | 457 kts | 173° |
| 2026-04-26 14:50 | 44.15958 | 17.42617 | 37068 ft | 455 kts | 173° |
| 2026-04-26 14:50 | 44.12829 | 17.43294 | 36411 ft | 455 kts | 173° |
| 2026-04-26 14:51 | 44.09695 | 17.43967 | 35665 ft | 456 kts | 173° |
| 2026-04-26 14:51 | 44.06548 | 17.44637 | 34913 ft | 457 kts | 173° |
| 2026-04-26 14:51 | 44.03401 | 17.45308 | 34160 ft | 458 kts | 173° |
| 2026-04-26 14:51 | 44.00240 | 17.45983 | 33298 ft | 460 kts | 173° |
| 2026-04-26 14:52 | 43.97071 | 17.46660 | 32416 ft | 462 kts | 173° |
| 2026-04-26 14:52 | 43.93923 | 17.47333 | 31527 ft | 465 kts | 172° |
| 2026-04-26 14:52 | 43.90718 | 17.48017 | 30650 ft | 467 kts | 172° |
| 2026-04-26 14:52 | 43.87496 | 17.48704 | 29719 ft | 469 kts | 172° |
| 2026-04-26 14:53 | 43.84262 | 17.49393 | 28636 ft | 472 kts | 172° |
| 2026-04-26 14:53 | 43.81013 | 17.50081 | 27642 ft | 473 kts | 172° |
| 2026-04-26 14:53 | 43.77772 | 17.50764 | 26940 ft | 468 kts | 172° |
| 2026-04-26 14:53 | 43.74567 | 17.51438 | 26229 ft | 464 kts | 171° |
| 2026-04-26 14:54 | 43.71388 | 17.52110 | 25563 ft | 460 kts | 171° |
| 2026-04-26 14:54 | 43.68240 | 17.52777 | 24866 ft | 456 kts | 171° |
| 2026-04-26 14:54 | 43.65109 | 17.53441 | 24215 ft | 452 kts | 171° |
| 2026-04-26 14:54 | 43.62013 | 17.54095 | 23621 ft | 446 kts | 170° |
| 2026-04-26 14:55 | 43.58964 | 17.54737 | 22949 ft | 440 kts | 170° |
| 2026-04-26 14:55 | 43.55952 | 17.55371 | 22250 ft | 435 kts | 170° |
| 2026-04-26 14:55 | 43.52982 | 17.55998 | 21546 ft | 430 kts | 171° |
| 2026-04-26 14:55 | 43.50043 | 17.56616 | 20858 ft | 425 kts | 171° |
| 2026-04-26 14:56 | 43.47130 | 17.57226 | 20269 ft | 421 kts | 171° |
| 2026-04-26 14:56 | 43.44231 | 17.57832 | 20071 ft | 422 kts | 171° |
| 2026-04-26 14:56 | 43.41344 | 17.58434 | 19638 ft | 416 kts | 171° |
| 2026-04-26 14:56 | 43.38488 | 17.59028 | 18899 ft | 413 kts | 171° |
| 2026-04-26 14:57 | 43.35658 | 17.59617 | 18215 ft | 409 kts | 171° |
| 2026-04-26 14:57 | 43.32855 | 17.60203 | 17456 ft | 405 kts | 171° |
| 2026-04-26 14:57 | 43.30081 | 17.60785 | 16718 ft | 401 kts | 171° |
| 2026-04-26 14:57 | 43.27335 | 17.61359 | 16040 ft | 397 kts | 171° |
| 2026-04-26 14:58 | 43.24612 | 17.61926 | 15404 ft | 394 kts | 171° |
| 2026-04-26 14:58 | 43.21915 | 17.62487 | 14743 ft | 391 kts | 171° |
| 2026-04-26 14:58 | 43.19234 | 17.63044 | 14104 ft | 389 kts | 171° |
| 2026-04-26 14:58 | 43.16575 | 17.63597 | 13473 ft | 385 kts | 171° |
| 2026-04-26 14:59 | 43.13935 | 17.64147 | 12811 ft | 382 kts | 171° |
| 2026-04-26 14:59 | 43.11318 | 17.64694 | 12177 ft | 379 kts | 171° |
| 2026-04-26 14:59 | 43.08729 | 17.65232 | 11775 ft | 370 kts | 171° |
| 2026-04-26 14:59 | 43.07063 | 17.65473 | 11690 ft | 358 kts | 178° |
| 2026-04-26 15:00 | 43.03884 | 17.65012 | 11523 ft | 338 kts | 194° |
| 2026-04-26 15:00 | 43.01726 | 17.63935 | 11396 ft | 323 kts | 206° |
| 2026-04-26 15:00 | 42.99835 | 17.62408 | 11277 ft | 310 kts | 213° |
| 2026-04-26 15:00 | 42.98050 | 17.60851 | 11152 ft | 298 kts | 212° |
| 2026-04-26 15:01 | 42.96332 | 17.59363 | 10978 ft | 286 kts | 212° |
| 2026-04-26 15:01 | 42.94664 | 17.57925 | 10547 ft | 281 kts | 212° |
| 2026-04-26 15:01 | 42.92971 | 17.56658 | 10148 ft | 275 kts | 197° |
| 2026-04-26 15:01 | 42.91099 | 17.56252 | 10018 ft | 272 kts | 176° |
| 2026-04-26 15:02 | 42.89281 | 17.56769 | 9512 ft | 265 kts | 154° |
| 2026-04-26 15:02 | 42.87767 | 17.58138 | 8959 ft | 260 kts | 133° |
| 2026-04-26 15:02 | 42.86509 | 17.59914 | 8384 ft | 260 kts | 131° |
| 2026-04-26 15:02 | 42.85251 | 17.61685 | 7837 ft | 260 kts | 131° |
| 2026-04-26 15:03 | 42.83993 | 17.63442 | 7372 ft | 258 kts | 132° |
| 2026-04-26 15:03 | 42.82742 | 17.65180 | 6886 ft | 255 kts | 132° |
| 2026-04-26 15:03 | 42.81499 | 17.66899 | 6508 ft | 255 kts | 132° |
| 2026-04-26 15:03 | 42.80258 | 17.68614 | 6133 ft | 253 kts | 133° |
| 2026-04-26 15:04 | 42.79025 | 17.70323 | 5771 ft | 252 kts | 133° |
| 2026-04-26 15:04 | 42.77814 | 17.72039 | 5405 ft | 251 kts | 127° |
| 2026-04-26 15:04 | 42.76882 | 17.74021 | 5055 ft | 247 kts | 115° |
| 2026-04-26 15:04 | 42.76085 | 17.76107 | 4993 ft | 251 kts | 116° |
| 2026-04-26 15:05 | 42.75264 | 17.78222 | 4996 ft | 254 kts | 116° |
| 2026-04-26 15:05 | 42.74713 | 17.79633 | 4995 ft | 255 kts | 116° |
| 2026-04-26 15:05 | 42.73598 | 17.82480 | 5006 ft | 255 kts | 116° |
| 2026-04-26 15:05 | 42.72763 | 17.84606 | 5001 ft | 254 kts | 117° |
| 2026-04-26 15:06 | 42.71932 | 17.86726 | 5002 ft | 254 kts | 116° |
| 2026-04-26 15:06 | 42.71100 | 17.88852 | 4889 ft | 254 kts | 116° |
| 2026-04-26 15:06 | 42.70273 | 17.90963 | 4763 ft | 249 kts | 117° |
| 2026-04-26 15:06 | 42.69465 | 17.93021 | 4628 ft | 245 kts | 117° |
| 2026-04-26 15:07 | 42.67864 | 17.97090 | 4381 ft | 243 kts | 117° |
| 2026-04-26 15:07 | 42.67076 | 17.99086 | 4260 ft | 243 kts | 117° |
| 2026-04-26 15:07 | 42.66278 | 18.01117 | 4140 ft | 243 kts | 117° |
| 2026-04-26 15:08 | 42.65479 | 18.03151 | 3964 ft | 245 kts | 117° |
| 2026-04-26 15:08 | 42.64680 | 18.05183 | 3686 ft | 243 kts | 117° |
| 2026-04-26 15:08 | 42.63885 | 18.07202 | 3384 ft | 241 kts | 118° |
| 2026-04-26 15:08 | 42.63106 | 18.09179 | 3066 ft | 235 kts | 118° |
| 2026-04-26 15:09 | 42.62349 | 18.11101 | 2751 ft | 224 kts | 118° |
| 2026-04-26 15:09 | 42.61636 | 18.12909 | 2472 ft | 211 kts | 118° |
| 2026-04-26 15:09 | 42.60968 | 18.14602 | 2208 ft | 196 kts | 118° |
| 2026-04-26 15:09 | 42.60355 | 18.16156 | 1968 ft | 177 kts | 118° |
| 2026-04-26 15:10 | 42.59794 | 18.17587 | 1680 ft | 167 kts | 118° |
| 2026-04-26 15:10 | 42.59443 | 18.18488 | 1557 ft | 157 kts | 118° |
| 2026-04-26 15:10 | 42.58766 | 18.20193 | 1311 ft | 154 kts | 120° |
| 2026-04-26 15:10 | 42.58262 | 18.21481 | 1105 ft | 153 kts | 119° |
| 2026-04-26 15:11 | 42.57762 | 18.22744 | 925 ft | 150 kts | 121° |
| 2026-04-26 15:11 | 42.57260 | 18.23993 | 719 ft | 152 kts | 120° |
| 2026-04-26 15:11 | 42.56757 | 18.25263 | 548 ft | 151 kts | 120° |
| 2026-04-26 15:11 | 42.56297 | 18.26417 | 533 ft | 122 kts | 118° |
| 2026-04-26 15:12 | 42.55981 | 18.27211 | 533 ft | 69 kts | 118° |
| 2026-04-26 15:12 | 42.55794 | 18.27695 | 531 ft | 54 kts | 117° |
| 2026-04-26 15:12 | 42.55660 | 18.28030 | 532 ft | 30 kts | 118° |
| 2026-04-26 15:12 | 42.55595 | 18.28178 | 533 ft | 12 kts | 143° |
| 2026-04-26 15:13 | 42.55523 | 18.28161 | 534 ft | 10 kts | 205° |
| 2026-04-26 15:13 | 42.55477 | 18.28102 | 534 ft | 9 kts | 243° |
| 2026-04-26 15:13 | 42.55475 | 18.28028 | 534 ft | 8 kts | 287° |
| 2026-04-26 15:13 | 42.55497 | 18.27965 | 534 ft | 7 kts | 297° |
| 2026-04-26 15:14 | 42.55519 | 18.27906 | 534 ft | 7 kts | 297° |
| 2026-04-26 15:14 | 42.55541 | 18.27851 | 534 ft | 6 kts | 298° |
| 2026-04-26 15:14 | 42.55564 | 18.27795 | 534 ft | 8 kts | 299° |
| 2026-04-26 15:14 | 42.55589 | 18.27735 | 534 ft | 8 kts | 299° |
| 2026-04-26 15:15 | 42.55625 | 18.27643 | 534 ft | 14 kts | 298° |
| 2026-04-26 15:15 | 42.55681 | 18.27501 | 534 ft | 18 kts | 298° |
| 2026-04-26 15:15 | 42.55740 | 18.27353 | 534 ft | 18 kts | 298° |
| 2026-04-26 15:15 | 42.55795 | 18.27214 | 534 ft | 14 kts | 298° |
| 2026-04-26 15:16 | 42.55817 | 18.27159 | 534 ft | 6 kts | 298° |
| 2026-04-26 15:16 | 42.55834 | 18.27116 | 534 ft | 5 kts | 298° |
| 2026-04-26 15:16 | 42.55865 | 18.27038 | 534 ft | 14 kts | 298° |
| 2026-04-26 15:16 | 42.55920 | 18.26898 | 534 ft | 17 kts | 298° |
| 2026-04-26 15:17 | 42.55977 | 18.26755 | 534 ft | 17 kts | 298° |
| 2026-04-26 15:17 | 42.56014 | 18.26660 | 534 ft | 17 kts | 298° |
| 2026-04-26 15:17 | 42.56062 | 18.26539 | 534 ft | 8 kts | 298° |
| 2026-04-26 15:17 | 42.56089 | 18.26471 | 534 ft | 8 kts | 298° |
| 2026-04-26 15:18 | 42.56111 | 18.26416 | 534 ft | 5 kts | 298° |
| 2026-04-26 15:18 | 42.56107 | 18.26386 | 534 ft | 3 kts | 229° |
| 2026-04-26 15:18 | 42.56097 | 18.26374 | 534 ft | 2 kts | 218° |
| 2026-04-26 15:18 | 42.56084 | 18.26364 | 534 ft | 3 kts | 209° |
| 2026-04-26 15:19 | 42.56076 | 18.26358 | 534 ft | 1 kts | 209° |
| 2026-04-26 15:19 | 42.56073 | 18.26355 | 534 ft | 1 kts | 209° |
| 2026-04-26 15:19 | 42.56070 | 18.26353 | 534 ft | 0 kts | 209° |